Zaratamo, Spain
Current Conditions -  °F | °C
As of 5:00 AM on Thursday 29 Jan 2015 (Local Time) from LEBB Reporting Station
Broken Clouds Broken Clouds  
Wind Chill: 52°   Ceiling: 4500
Heat Index: 52°   Visibility: 6mi
Dew Point: 46°   Wind: 2mph
Humidity: 82%   Direction: NA
Pressure: 30.03"   Gusts: NA
Location:  43.22°N, 2.87°W
Report Text: LEBB 290400Z VRB02KT 9999 SCT035 BKN045 11/08 Q1017 NOSIG
Loading
Personal Weather Stations






























Interactive Weather Map New forecast layout! Learn more

10-Day Weather Forecast

Advertisements
Track Severe Weather on mobile